Time;durP1;ratioP1;P1;durP2;ratioP2;P2;SDS_P1;SDS_P2;PMS_P1;PMS_P2;Temp;Humidity;BMP_temperature;BMP_pressure;BME280_temperature;BME280_humidity;BME280_pressure;Samples;Min_cycle;Max_cycle;Signal;HPM_P1;HPM_P2
2023/01/29 00:02:14;;;;;;;;;;;0.70;99.90;;;;;;5088703;28;19957;-67
2023/01/29 00:04:40;;;;;;;;;;;0.70;99.90;;;;;;5057297;28;20003;-67
2023/01/29 00:07:05;;;;;;;;;;;0.70;99.90;;;;;;5075244;28;19913;-67
2023/01/29 00:09:31;;;;;;;;;;;0.70;99.90;;;;;;5075404;28;19912;-67
2023/01/29 00:11:56;;;;;;;;;;;0.70;99.90;;;;;;5061504;28;19912;-67
2023/01/29 00:14:22;;;;;;;;;;;0.70;99.90;;;;;;5095377;28;19966;-67
2023/01/29 00:16:48;;;;;;;;;;;0.70;99.90;;;;;;5095283;28;20011;-66
2023/01/29 00:19:13;;;;;;;;;;;0.70;99.90;;;;;;5095112;28;20006;-67
2023/01/29 00:21:39;;;;;;;;;;;0.70;99.90;;;;;;5092856;28;19912;-67
2023/01/29 00:24:04;;;;;;;;;;;0.70;99.90;;;;;;5074836;28;19919;-67
2023/01/29 00:26:30;;;;;;;;;;;0.70;99.90;;;;;;5074924;28;19919;-67
2023/01/29 00:28:56;;;;;;;;;;;0.70;99.90;;;;;;5074845;28;19939;-67
2023/01/29 00:31:23;;;;;;;;;;;0.70;99.90;;;;;;5074844;28;20378;-67
2023/01/29 00:33:48;;;;;;;;;;;0.70;99.90;;;;;;5094177;28;19973;-67
2023/01/29 00:36:15;;;;;;;;;;;0.70;99.90;;;;;;5095026;28;20271;-67
2023/01/29 00:38:41;;;;;;;;;;;0.60;99.90;;;;;;5095072;28;20339;-67
2023/01/29 00:46:35;;;;;;;;;;;0.70;99.90;;;;;;5074417;28;19966;-67
2023/01/29 00:49:01;;;;;;;;;;;0.70;99.90;;;;;;5074621;28;19912;-67
2023/01/29 00:51:26;;;;;;;;;;;0.60;99.90;;;;;;5074671;28;19912;-67
2023/01/29 00:53:57;;;;;;;;;;;0.70;99.90;;;;;;5094180;28;20408;-67
2023/01/29 00:56:26;;;;;;;;;;;0.70;99.90;;;;;;5094989;28;19912;-68
2023/01/29 00:58:51;;;;;;;;;;;0.60;99.90;;;;;;5076521;28;19912;-66
2023/01/29 01:03:04;;;;;;;;;;;0.60;99.90;;;;;;5094642;28;19919;-67
2023/01/29 01:04:03;;;;;;;;;;;0.60;99.90;;;;;;5054150;28;19956;-67
2023/01/29 01:06:28;;;;;;;;;;;0.60;99.90;;;;;;5054217;28;19913;-67
2023/01/29 01:11:38;;;;;;;;;;;0.60;99.90;;;;;;5068195;28;19920;-67
2023/01/29 01:14:03;;;;;;;;;;;0.60;99.90;;;;;;5092550;28;19920;-67
2023/01/29 01:16:29;;;;;;;;;;;0.60;99.90;;;;;;5072061;28;20012;-67
2023/01/29 01:18:54;;;;;;;;;;;0.60;99.90;;;;;;5094449;28;19970;-68
2023/01/29 01:21:20;;;;;;;;;;;0.60;99.90;;;;;;5094465;28;20027;-68
2023/01/29 01:23:46;;;;;;;;;;;0.60;99.90;;;;;;5075992;28;19912;-67
2023/01/29 01:26:12;;;;;;;;;;;0.60;99.90;;;;;;5074272;28;20003;-68
2023/01/29 01:28:38;;;;;;;;;;;0.60;99.90;;;;;;5056279;28;19953;-67
2023/01/29 01:31:08;;;;;;;;;;;0.50;99.90;;;;;;5074286;28;19912;-68
2023/01/29 01:33:33;;;;;;;;;;;0.60;99.90;;;;;;5094214;28;19927;-68
2023/01/29 01:36:02;;;;;;;;;;;0.50;99.90;;;;;;5098523;28;19912;-67
2023/01/29 01:38:28;;;;;;;;;;;0.50;99.90;;;;;;5080236;28;20375;-68
2023/01/29 01:40:53;;;;;;;;;;;0.60;99.90;;;;;;5098392;28;19919;-67
2023/01/29 01:43:19;;;;;;;;;;;0.50;99.90;;;;;;5083898;28;19916;-67
2023/01/29 01:45:45;;;;;;;;;;;0.50;99.90;;;;;;5060234;28;19912;-67
2023/01/29 01:48:25;;;;;;;;;;;0.50;99.90;;;;;;5078088;28;19920;-67
2023/01/29 01:50:50;;;;;;;;;;;0.60;99.90;;;;;;5077827;28;19916;-67
2023/01/29 01:53:20;;;;;;;;;;;0.50;99.90;;;;;;5073458;28;20010;-67
2023/01/29 01:55:50;;;;;;;;;;;0.50;99.90;;;;;;5097967;28;20359;-67
2023/01/29 01:58:28;;;;;;;;;;;0.50;99.90;;;;;;5079756;28;19973;-67
2023/01/29 02:00:54;;;;;;;;;;;0.50;99.90;;;;;;5097865;28;19950;-67
2023/01/29 02:11:33;;;;;;;;;;;0.50;99.90;;;;;;5077482;28;19920;-67
2023/01/29 02:13:59;;;;;;;;;;;0.50;99.90;;;;;;5096852;28;19920;-68
2023/01/29 02:16:24;;;;;;;;;;;0.50;99.90;;;;;;5097855;28;20389;-67
2023/01/29 02:18:50;;;;;;;;;;;0.50;99.90;;;;;;5097702;28;19995;-68
2023/01/29 02:21:23;;;;;;;;;;;0.50;99.90;;;;;;5097701;28;19943;-68
2023/01/29 02:23:49;;;;;;;;;;;0.50;99.90;;;;;;5079702;28;20003;-67
2023/01/29 02:26:24;;;;;;;;;;;0.50;99.90;;;;;;5077206;28;20456;-67
2023/01/29 02:28:55;;;;;;;;;;;0.50;99.90;;;;;;5059292;28;19917;-68
2023/01/29 02:31:31;;;;;;;;;;;0.50;99.90;;;;;;5076989;28;19916;-67
2023/01/29 02:34:07;;;;;;;;;;;0.50;99.90;;;;;;5095878;28;19959;-67
2023/01/29 02:36:33;;;;;;;;;;;0.50;99.90;;;;;;5097311;28;19928;-67
2023/01/29 02:38:58;;;;;;;;;;;0.40;99.90;;;;;;5079304;28;19916;-67
2023/01/29 02:41:24;;;;;;;;;;;0.40;99.90;;;;;;5079114;28;20382;-67
2023/01/29 02:44:04;;;;;;;;;;;0.40;99.90;;;;;;5078812;28;20429;-68
2023/01/29 02:46:59;;;;;;;;;;;0.40;99.90;;;;;;5076721;28;19909;-67
2023/01/29 02:49:34;;;;;;;;;;;0.40;99.90;;;;;;5063374;28;19912;-68
2023/01/29 02:52:09;;;;;;;;;;;0.40;99.90;;;;;;5078955;28;19913;-67
2023/01/29 02:54:44;;;;;;;;;;;0.40;99.90;;;;;;5096853;28;19954;-67
2023/01/29 02:57:19;;;;;;;;;;;0.40;99.90;;;;;;5096945;28;19973;-67
2023/01/29 02:59:49;;;;;;;;;;;0.40;99.90;;;;;;5096837;28;20374;-67
2023/01/29 03:02:17;;;;;;;;;;;0.40;99.90;;;;;;5092619;28;19920;-67
2023/01/29 03:04:48;;;;;;;;;;;0.40;99.90;;;;;;5076057;28;19975;-67
2023/01/29 03:07:39;;;;;;;;;;;0.40;99.90;;;;;;5076639;28;19913;-67
2023/01/29 03:10:02;;;;;;;;;;;0.40;99.90;;;;;;5075335;28;20364;-68
2023/01/29 03:12:35;;;;;;;;;;;0.30;99.90;;;;;;5082223;28;19912;-67
2023/01/29 03:15:10;;;;;;;;;;;0.30;99.90;;;;;;5093271;28;20398;-68
2023/01/29 03:17:40;;;;;;;;;;;0.40;99.90;;;;;;5096571;28;20363;-67
2023/01/29 03:20:08;;;;;;;;;;;0.30;99.90;;;;;;5096624;28;19912;-67
2023/01/29 03:22:35;;;;;;;;;;;0.30;99.90;;;;;;5089690;28;19916;-67
2023/01/29 03:33:17;;;;;;;;;;;0.30;99.90;;;;;;5087939;28;20393;-67
2023/01/29 03:35:50;;;;;;;;;;;0.20;99.90;;;;;;5096435;28;20067;-67
2023/01/29 03:38:16;;;;;;;;;;;0.20;99.90;;;;;;5078038;28;20276;-67
2023/01/29 03:40:50;;;;;;;;;;;0.20;99.90;;;;;;5096099;28;19919;-67
2023/01/29 03:43:15;;;;;;;;;;;0.20;99.90;;;;;;5083804;28;20355;-67
2023/01/29 03:45:59;;;;;;;;;;;0.20;99.90;;;;;;5075794;28;19913;-67
2023/01/29 03:48:39;;;;;;;;;;;0.20;99.90;;;;;;5075971;28;19912;-66
2023/01/29 03:51:20;;;;;;;;;;;0.20;99.90;;;;;;5075932;28;19917;-66
2023/01/29 03:53:57;;;;;;;;;;;0.20;99.90;;;;;;5091377;28;19924;-67
2023/01/29 03:56:29;;;;;;;;;;;0.10;99.90;;;;;;5094791;28;19912;-67
2023/01/29 03:58:58;;;;;;;;;;;0.10;99.90;;;;;;5095752;28;20023;-68
2023/01/29 04:01:29;;;;;;;;;;;0.10;99.90;;;;;;5095920;28;19942;-67
2023/01/29 04:04:00;;;;;;;;;;;0.10;99.90;;;;;;5078533;28;19913;-67
2023/01/29 04:06:28;;;;;;;;;;;0.10;99.90;;;;;;5075453;28;19916;-67
2023/01/29 04:09:10;;;;;;;;;;;0.10;99.90;;;;;;5075425;28;19920;-67
2023/01/29 04:11:37;;;;;;;;;;;0.10;99.90;;;;;;5075338;28;19912;-67
2023/01/29 04:14:03;;;;;;;;;;;0.10;99.90;;;;;;5093097;28;20002;-67
2023/01/29 04:16:34;;;;;;;;;;;0.10;99.90;;;;;;5095442;28;20363;-67
2023/01/29 04:19:00;;;;;;;;;;;0.10;99.90;;;;;;5095324;28;20409;-67
2023/01/29 04:21:26;;;;;;;;;;;0.10;99.90;;;;;;5095549;28;19912;-67
2023/01/29 04:23:51;;;;;;;;;;;0.10;99.90;;;;;;5078929;28;19919;-67
2023/01/29 04:26:26;;;;;;;;;;;0.10;99.90;;;;;;5075068;28;19912;-68
2023/01/29 04:29:06;;;;;;;;;;;0.10;99.90;;;;;;5074922;28;19939;-68
2023/01/29 04:31:34;;;;;;;;;;;0.00;99.90;;;;;;5056632;28;19958;-67
2023/01/29 04:34:00;;;;;;;;;;;0.00;99.90;;;;;;5092074;28;19920;-67
2023/01/29 04:36:25;;;;;;;;;;;0.00;99.90;;;;;;5076973;28;19919;-67
2023/01/29 04:39:12;;;;;;;;;;;0.10;99.90;;;;;;5095047;28;19919;-67
2023/01/29 04:41:56;;;;;;;;;;;0.10;99.90;;;;;;5093069;28;20321;-67
2023/01/29 04:44:39;;;;;;;;;;;0.00;99.90;;;;;;5053447;28;19913;-68
2023/01/29 04:47:11;;;;;;;;;;;0.00;99.90;;;;;;5054812;28;19913;-67
2023/01/29 04:49:52;;;;;;;;;;;0.00;99.90;;;;;;5036471;28;19919;-67
2023/01/29 04:52:20;;;;;;;;;;;0.00;99.90;;;;;;5057093;28;19916;-68
2023/01/29 04:54:45;;;;;;;;;;;0.00;99.90;;;;;;5093216;28;19920;-67
2023/01/29 04:57:14;;;;;;;;;;;0.00;99.90;;;;;;5093209;28;19912;-67
2023/01/29 04:59:44;;;;;;;;;;;0.00;99.90;;;;;;5094599;28;19912;-67
2023/01/29 05:02:10;;;;;;;;;;;0.00;99.90;;;;;;5093041;28;19912;-68
2023/01/29 05:04:38;;;;;;;;;;;0.00;99.90;;;;;;5072217;28;19913;-67
2023/01/29 05:07:05;;;;;;;;;;;0.00;99.90;;;;;;5054444;28;19955;-67
2023/01/29 05:09:31;;;;;;;;;;;0.00;99.90;;;;;;5056403;28;20415;-67
2023/01/29 05:11:57;;;;;;;;;;;0.00;99.90;;;;;;5073953;28;20283;-67
2023/01/29 05:14:23;;;;;;;;;;;0.00;99.90;;;;;;5109847;28;19920;-67
2023/01/29 05:16:51;;;;;;;;;;;0.00;99.90;;;;;;5094342;28;20294;-67
2023/01/29 05:19:17;;;;;;;;;;;0.00;99.90;;;;;;5074210;28;19923;-67
2023/01/29 05:21:44;;;;;;;;;;;0.00;99.90;;;;;;5093377;28;19912;-67
2023/01/29 05:24:14;;;;;;;;;;;0.00;99.90;;;;;;5058498;28;19916;-67
2023/01/29 05:29:25;;;;;;;;;;;0.00;99.90;;;;;;5094223;28;20280;-67
2023/01/29 05:31:51;;;;;;;;;;;0.00;99.90;;;;;;5094209;28;19912;-67
2023/01/29 05:34:16;;;;;;;;;;;0.00;99.90;;;;;;5094370;28;19920;-67
2023/01/29 05:36:42;;;;;;;;;;;0.00;99.90;;;;;;5066336;28;19912;-66
2023/01/29 05:39:08;;;;;;;;;;;0.00;99.90;;;;;;5074140;28;19952;-67
2023/01/29 05:41:33;;;;;;;;;;;0.10;99.90;;;;;;5074169;28;19958;-67
2023/01/29 05:43:59;;;;;;;;;;;0.00;99.90;;;;;;5074010;28;19940;-67
2023/01/29 05:46:24;;;;;;;;;;;0.00;99.90;;;;;;5055833;28;19969;-67
2023/01/29 05:48:53;;;;;;;;;;;0.00;99.90;;;;;;5074008;28;19924;-67
2023/01/29 05:51:18;;;;;;;;;;;0.00;99.90;;;;;;5073858;28;20280;-67
2023/01/29 05:53:44;;;;;;;;;;;0.00;99.90;;;;;;5073822;28;19927;-67
2023/01/29 05:56:09;;;;;;;;;;;0.00;99.90;;;;;;5078997;28;19916;-68
2023/01/29 05:58:35;;;;;;;;;;;0.10;99.90;;;;;;5094107;28;20344;-68
2023/01/29 06:01:08;;;;;;;;;;;0.00;99.90;;;;;;5094200;28;19951;-67
2023/01/29 06:03:34;;;;;;;;;;;0.10;99.90;;;;;;5094262;28;19912;-66
2023/01/29 06:06:00;;;;;;;;;;;0.10;99.90;;;;;;5090492;28;19912;-67
2023/01/29 06:08:26;;;;;;;;;;;0.00;99.90;;;;;;5073931;28;19913;-67
2023/01/29 06:10:51;;;;;;;;;;;0.00;99.90;;;;;;5073929;28;19958;-67
2023/01/29 06:13:17;;;;;;;;;;;0.00;99.90;;;;;;5073696;28;19921;-67
2023/01/29 06:15:42;;;;;;;;;;;0.10;99.90;;;;;;5056691;28;20006;-67
2023/01/29 06:18:08;;;;;;;;;;;0.10;99.90;;;;;;5094014;28;19916;-67
2023/01/29 06:20:33;;;;;;;;;;;0.00;99.90;;;;;;5097017;28;20442;-67
2023/01/29 06:22:59;;;;;;;;;;;0.10;99.90;;;;;;5097512;28;19912;-67
2023/01/29 06:25:25;;;;;;;;;;;0.00;99.90;;;;;;5097706;28;19938;-67
2023/01/29 06:27:50;;;;;;;;;;;0.10;99.90;;;;;;5060786;28;20008;-67
2023/01/29 06:30:16;;;;;;;;;;;0.10;99.90;;;;;;5077368;28;20015;-67
2023/01/29 06:32:41;;;;;;;;;;;0.10;99.90;;;;;;5077077;28;19916;-67
2023/01/29 06:35:09;;;;;;;;;;;0.10;99.90;;;;;;5059093;28;19916;-67
2023/01/29 06:37:34;;;;;;;;;;;0.10;99.90;;;;;;5093184;28;19916;-67
2023/01/29 06:40:00;;;;;;;;;;;0.10;99.90;;;;;;5079140;28;19916;-68
2023/01/29 06:42:26;;;;;;;;;;;0.10;99.90;;;;;;5097293;28;19912;-67
2023/01/29 06:44:55;;;;;;;;;;;0.10;99.90;;;;;;5097228;28;20363;-67
2023/01/29 06:47:20;;;;;;;;;;;0.10;99.90;;;;;;5082786;28;19913;-67
2023/01/29 06:49:46;;;;;;;;;;;0.10;99.90;;;;;;5076901;28;19918;-67
2023/01/29 06:52:12;;;;;;;;;;;0.10;99.90;;;;;;5076933;28;20355;-68
2023/01/29 06:54:37;;;;;;;;;;;0.10;99.90;;;;;;5076784;28;19921;-67
2023/01/29 06:57:03;;;;;;;;;;;0.10;99.90;;;;;;5088139;28;20355;-67
2023/01/29 06:59:28;;;;;;;;;;;0.10;99.90;;;;;;5078767;28;19912;-67
2023/01/29 07:01:54;;;;;;;;;;;0.10;99.90;;;;;;5096941;28;19912;-67
2023/01/29 07:04:19;;;;;;;;;;;0.10;99.90;;;;;;5096850;28;20373;-67
2023/01/29 07:06:45;;;;;;;;;;;0.00;99.90;;;;;;5089895;28;19916;-67
2023/01/29 07:09:12;;;;;;;;;;;0.10;99.90;;;;;;5096897;28;19912;-67
2023/01/29 07:11:38;;;;;;;;;;;0.10;99.90;;;;;;5096740;28;20274;-67
2023/01/29 07:14:04;;;;;;;;;;;0.10;99.90;;;;;;5078395;28;19920;-67
2023/01/29 07:16:29;;;;;;;;;;;0.10;99.90;;;;;;5086500;28;20241;-67
2023/01/29 07:18:55;;;;;;;;;;;0.30;99.90;;;;;;5094450;28;19916;-67
2023/01/29 07:21:21;;;;;;;;;;;0.20;99.90;;;;;;5096624;28;20027;-67
2023/01/29 07:23:46;;;;;;;;;;;0.10;99.90;;;;;;5096505;28;19912;-67
2023/01/29 07:26:12;;;;;;;;;;;0.10;99.90;;;;;;5096178;28;20390;-67
2023/01/29 07:28:38;;;;;;;;;;;0.10;99.90;;;;;;5095017;28;19919;-68
2023/01/29 07:31:04;;;;;;;;;;;0.00;99.90;;;;;;5096291;28;19912;-67
2023/01/29 07:33:29;;;;;;;;;;;0.00;99.90;;;;;;5095191;28;20285;-68
2023/01/29 07:35:55;;;;;;;;;;;0.00;99.90;;;;;;5094685;28;20356;-67
2023/01/29 07:38:21;;;;;;;;;;;0.10;99.90;;;;;;5095356;28;19945;-67
2023/01/29 07:40:46;;;;;;;;;;;0.00;99.90;;;;;;5094540;28;19912;-67
2023/01/29 07:43:12;;;;;;;;;;;0.00;99.90;;;;;;5095996;28;19912;-67
2023/01/29 07:45:38;;;;;;;;;;;0.00;99.90;;;;;;5096205;28;19919;-67
2023/01/29 07:48:05;;;;;;;;;;;0.00;99.90;;;;;;5095974;28;19915;-67
2023/01/29 07:50:31;;;;;;;;;;;0.00;99.90;;;;;;5096072;28;19916;-67
2023/01/29 07:52:57;;;;;;;;;;;0.00;99.90;;;;;;5095879;28;19913;-67
2023/01/29 07:55:23;;;;;;;;;;;0.00;99.90;;;;;;5095788;28;19984;-67
2023/01/29 07:57:55;;;;;;;;;;;0.00;99.90;;;;;;5095868;28;19912;-67
2023/01/29 08:00:20;;;;;;;;;;;0.00;99.90;;;;;;5094422;28;19962;-67
2023/01/29 08:02:46;;;;;;;;;;;0.00;99.90;;;;;;5095738;28;19916;-67
2023/01/29 08:05:12;;;;;;;;;;;0.00;99.90;;;;;;5095528;28;19912;-67
2023/01/29 08:07:37;;;;;;;;;;;0.00;99.90;;;;;;5095490;28;19912;-67
2023/01/29 08:10:03;;;;;;;;;;;0.00;99.90;;;;;;5095585;28;20027;-67
2023/01/29 08:12:28;;;;;;;;;;;0.00;99.90;;;;;;5095644;28;19918;-67
2023/01/29 08:14:54;;;;;;;;;;;0.00;99.90;;;;;;5095667;28;19920;-67
2023/01/29 08:17:20;;;;;;;;;;;0.00;99.90;;;;;;5095163;28;19920;-67
2023/01/29 08:19:45;;;;;;;;;;;0.10;99.90;;;;;;5095480;28;19958;-67
2023/01/29 08:22:11;;;;;;;;;;;0.10;99.90;;;;;;5095558;28;19985;-67
2023/01/29 08:24:36;;;;;;;;;;;0.00;99.90;;;;;;5095210;28;19999;-67
2023/01/29 08:27:02;;;;;;;;;;;0.10;99.90;;;;;;5095296;28;19916;-67
2023/01/29 08:29:28;;;;;;;;;;;0.10;99.90;;;;;;5095345;28;19912;-67
2023/01/29 08:31:53;;;;;;;;;;;0.10;99.90;;;;;;5095416;28;19918;-67
2023/01/29 08:34:19;;;;;;;;;;;0.10;99.90;;;;;;5095184;28;20011;-67
2023/01/29 08:36:46;;;;;;;;;;;0.10;99.90;;;;;;5095027;28;20372;-67
2023/01/29 08:39:11;;;;;;;;;;;0.10;99.90;;;;;;5094928;28;19912;-67
2023/01/29 08:41:37;;;;;;;;;;;0.10;99.90;;;;;;5094555;28;19919;-68
2023/01/29 08:44:03;;;;;;;;;;;0.10;99.90;;;;;;5093678;28;19912;-68
2023/01/29 08:46:29;;;;;;;;;;;0.10;99.90;;;;;;5094772;28;19916;-67
2023/01/29 08:48:54;;;;;;;;;;;0.10;99.90;;;;;;5094884;28;19973;-67
2023/01/29 08:51:20;;;;;;;;;;;0.20;99.90;;;;;;5094730;28;19918;-67
2023/01/29 08:53:46;;;;;;;;;;;0.20;99.90;;;;;;5094652;28;19953;-68
2023/01/29 08:56:15;;;;;;;;;;;0.20;99.90;;;;;;5094768;28;19912;-67
2023/01/29 08:58:41;;;;;;;;;;;0.30;99.90;;;;;;5094741;28;19916;-67
2023/01/29 09:01:07;;;;;;;;;;;0.30;99.90;;;;;;5094766;28;19912;-67
2023/01/29 09:03:33;;;;;;;;;;;0.30;99.90;;;;;;5094629;28;19920;-67
2023/01/29 09:05:59;;;;;;;;;;;0.30;99.90;;;;;;5094578;28;20286;-67
2023/01/29 09:08:25;;;;;;;;;;;0.40;99.90;;;;;;5094121;28;19912;-67
2023/01/29 09:10:50;;;;;;;;;;;0.40;99.90;;;;;;5094744;28;19916;-67
2023/01/29 09:13:16;;;;;;;;;;;0.40;99.90;;;;;;5094623;28;20566;-67
2023/01/29 09:15:41;;;;;;;;;;;0.30;99.90;;;;;;5094474;28;19924;-67
2023/01/29 09:18:07;;;;;;;;;;;0.40;99.90;;;;;;5094449;28;19916;-67
2023/01/29 09:20:32;;;;;;;;;;;0.50;99.90;;;;;;5093221;28;20314;-67
2023/01/29 09:23:02;;;;;;;;;;;0.40;99.90;;;;;;5093139;28;19912;-67
2023/01/29 09:25:27;;;;;;;;;;;0.50;99.90;;;;;;5094066;28;19913;-67
2023/01/29 09:27:53;;;;;;;;;;;0.50;99.90;;;;;;5094413;28;19999;-67
2023/01/29 09:30:19;;;;;;;;;;;0.60;99.90;;;;;;5093116;28;19958;-67
2023/01/29 09:32:44;;;;;;;;;;;0.60;99.90;;;;;;5094350;28;20419;-67
2023/01/29 09:35:10;;;;;;;;;;;0.60;99.90;;;;;;5094450;28;20291;-67
2023/01/29 09:37:35;;;;;;;;;;;0.60;99.90;;;;;;5094158;28;19918;-67
2023/01/29 09:40:01;;;;;;;;;;;0.70;99.90;;;;;;5094506;28;19959;-67
2023/01/29 09:42:28;;;;;;;;;;;0.70;99.90;;;;;;5094370;28;19912;-67
2023/01/29 09:45:14;;;;;;;;;;;0.70;99.90;;;;;;5094332;28;19919;-67
2023/01/29 09:47:40;;;;;;;;;;;0.80;99.90;;;;;;5093769;28;19951;-67
2023/01/29 09:50:12;;;;;;;;;;;0.90;99.90;;;;;;5094298;28;19951;-68
2023/01/29 09:52:39;;;;;;;;;;;0.90;99.90;;;;;;5094406;28;19965;-68
2023/01/29 09:55:23;;;;;;;;;;;0.90;99.90;;;;;;5096923;28;19920;-68
2023/01/29 09:57:57;;;;;;;;;;;0.90;99.90;;;;;;5098218;28;19916;-68
2023/01/29 10:00:30;;;;;;;;;;;1.10;99.90;;;;;;5097925;28;19912;-67
2023/01/29 10:03:08;;;;;;;;;;;0.90;99.90;;;;;;5098034;28;19912;-67
2023/01/29 10:05:44;;;;;;;;;;;1.00;99.90;;;;;;5098009;28;19912;-67
2023/01/29 10:08:19;;;;;;;;;;;1.00;99.90;;;;;;5096637;28;20011;-67
2023/01/29 10:10:45;;;;;;;;;;;0.90;99.90;;;;;;5096624;28;20407;-67
2023/01/29 10:13:36;;;;;;;;;;;1.00;99.90;;;;;;5097871;28;20061;-68
2023/01/29 10:16:14;;;;;;;;;;;1.00;99.90;;;;;;5097854;28;20008;-67
2023/01/29 10:18:39;;;;;;;;;;;0.90;99.90;;;;;;5075700;28;19923;-68
2023/01/29 10:21:14;;;;;;;;;;;0.90;99.90;;;;;;5075565;28;20003;-67
2023/01/29 10:23:42;;;;;;;;;;;0.80;99.90;;;;;;5077331;28;19998;-67
2023/01/29 10:26:10;;;;;;;;;;;0.80;99.90;;;;;;5077746;28;19955;-68
2023/01/29 10:28:41;;;;;;;;;;;0.90;99.90;;;;;;5097456;28;19912;-67
2023/01/29 10:31:19;;;;;;;;;;;0.80;99.90;;;;;;5097524;28;19965;-68
2023/01/29 10:33:48;;;;;;;;;;;0.90;99.90;;;;;;5096011;28;19920;-67
2023/01/29 10:36:20;;;;;;;;;;;0.90;99.90;;;;;;5096020;28;19912;-67
2023/01/29 10:38:46;;;;;;;;;;;0.80;99.90;;;;;;5097451;28;19912;-67
2023/01/29 10:41:18;;;;;;;;;;;0.90;99.90;;;;;;5097552;28;20015;-68
2023/01/29 10:43:52;;;;;;;;;;;0.90;99.90;;;;;;5096095;28;19912;-68
2023/01/29 10:46:26;;;;;;;;;;;0.90;99.90;;;;;;5097211;28;19918;-68
2023/01/29 10:48:55;;;;;;;;;;;0.90;99.90;;;;;;5097559;28;19912;-67
2023/01/29 10:51:20;;;;;;;;;;;0.80;99.90;;;;;;5097299;28;19922;-67
2023/01/29 10:53:46;;;;;;;;;;;0.90;99.90;;;;;;5097205;28;19920;-67
2023/01/29 10:56:23;;;;;;;;;;;0.90;99.90;;;;;;5097214;28;19973;-67
2023/01/29 10:59:12;;;;;;;;;;;0.90;99.90;;;;;;5097139;28;20363;-67
2023/01/29 11:01:38;;;;;;;;;;;0.90;99.90;;;;;;5067339;28;19912;-67
2023/01/29 11:04:05;;;;;;;;;;;1.00;99.90;;;;;;5096943;28;19918;-68
2023/01/29 11:06:32;;;;;;;;;;;1.00;99.90;;;;;;5096201;28;19977;-68
2023/01/29 11:09:00;;;;;;;;;;;1.00;99.90;;;;;;5096813;28;20309;-68
2023/01/29 11:11:44;;;;;;;;;;;1.10;99.90;;;;;;5096881;28;19948;-67
2023/01/29 11:14:15;;;;;;;;;;;1.10;99.90;;;;;;5096625;28;19968;-67
2023/01/29 11:16:42;;;;;;;;;;;1.00;99.90;;;;;;5096371;28;19916;-67
2023/01/29 11:19:08;;;;;;;;;;;1.00;99.90;;;;;;5082915;28;19970;-67
2023/01/29 11:21:49;;;;;;;;;;;1.00;99.90;;;;;;5076280;28;19912;-68
2023/01/29 11:24:16;;;;;;;;;;;1.00;99.90;;;;;;5076229;28;19958;-67
2023/01/29 11:26:42;;;;;;;;;;;0.90;99.90;;;;;;5080426;28;19912;-67
2023/01/29 11:29:27;;;;;;;;;;;0.90;99.90;;;;;;5096272;28;19912;-68
2023/01/29 11:31:53;;;;;;;;;;;0.90;99.90;;;;;;5096315;28;19916;-67
2023/01/29 11:34:24;;;;;;;;;;;1.00;99.90;;;;;;5096240;28;19970;-67
2023/01/29 11:37:02;;;;;;;;;;;1.10;99.90;;;;;;5091068;28;20587;-68
2023/01/29 11:39:29;;;;;;;;;;;1.00;99.90;;;;;;5058056;28;19965;-67
2023/01/29 11:42:04;;;;;;;;;;;1.00;99.90;;;;;;5076121;28;19999;-67
2023/01/29 11:44:56;;;;;;;;;;;1.00;99.90;;;;;;5075827;28;19935;-68
2023/01/29 11:47:25;;;;;;;;;;;1.00;99.90;;;;;;5082044;28;19912;-69
2023/01/29 11:50:00;;;;;;;;;;;1.00;99.90;;;;;;5096150;28;19916;-67
2023/01/29 11:52:32;;;;;;;;;;;1.00;99.90;;;;;;5096103;28;19965;-68
2023/01/29 11:55:01;;;;;;;;;;;1.10;99.90;;;;;;5095681;28;20339;-67
2023/01/29 11:57:40;;;;;;;;;;;1.00;99.90;;;;;;5085595;28;19935;-67
2023/01/29 12:00:15;;;;;;;;;;;1.00;99.90;;;;;;5075605;28;19913;-67
2023/01/29 12:02:42;;;;;;;;;;;1.00;99.90;;;;;;5075567;28;19916;-68
2023/01/29 12:05:17;;;;;;;;;;;1.10;99.90;;;;;;5075514;28;20023;-67
2023/01/29 12:07:45;;;;;;;;;;;1.10;99.90;;;;;;5087651;28;19965;-67
2023/01/29 12:10:30;;;;;;;;;;;1.00;99.90;;;;;;5077468;28;19916;-68
2023/01/29 12:13:05;;;;;;;;;;;1.10;99.90;;;;;;5095490;28;19951;-68
2023/01/29 12:15:30;;;;;;;;;;;1.10;99.90;;;;;;5095551;28;19927;-68
2023/01/29 12:18:04;;;;;;;;;;;1.10;99.90;;;;;;5090331;28;19920;-67
2023/01/29 12:20:35;;;;;;;;;;;1.00;99.90;;;;;;5094123;28;20297;-67
2023/01/29 12:23:19;;;;;;;;;;;1.10;99.90;;;;;;5094079;28;19923;-68
2023/01/29 12:25:45;;;;;;;;;;;1.20;99.90;;;;;;5095372;28;19912;-67
2023/01/29 12:28:29;;;;;;;;;;;1.10;99.90;;;;;;5095104;28;19912;-68
2023/01/29 12:31:14;;;;;;;;;;;1.00;99.90;;;;;;5093991;28;20323;-68
2023/01/29 12:33:58;;;;;;;;;;;1.00;99.90;;;;;;5093947;28;20221;-67
2023/01/29 12:36:30;;;;;;;;;;;1.10;99.90;;;;;;5095017;28;20002;-68
2023/01/29 12:38:57;;;;;;;;;;;1.10;99.90;;;;;;5095111;28;19915;-67
2023/01/29 12:41:27;;;;;;;;;;;1.10;99.90;;;;;;5095232;28;19912;-67
2023/01/29 12:44:15;;;;;;;;;;;1.10;99.90;;;;;;5093808;28;20248;-68
2023/01/29 12:46:43;;;;;;;;;;;1.20;99.90;;;;;;5093516;28;19912;-67
2023/01/29 12:49:11;;;;;;;;;;;1.20;99.90;;;;;;5094638;28;19965;-68
2023/01/29 12:51:47;;;;;;;;;;;1.20;99.90;;;;;;5094068;28;19965;-68
2023/01/29 12:54:16;;;;;;;;;;;1.30;99.90;;;;;;5094537;28;19920;-69
2023/01/29 12:56:46;;;;;;;;;;;1.50;99.90;;;;;;5093660;28;19912;-68
2023/01/29 12:59:11;;;;;;;;;;;;;;;;;;5094691;28;19951;-70
2023/01/29 13:01:41;;;;;;;;;;;1.60;99.90;;;;;;5094792;28;19912;-68
2023/01/29 13:04:30;;;;;;;;;;;1.70;99.90;;;;;;5094886;28;20000;-68
2023/01/29 13:07:02;;;;;;;;;;;1.60;99.90;;;;;;5089025;28;19912;-67
2023/01/29 13:09:31;;;;;;;;;;;1.50;99.90;;;;;;5094655;28;20002;-68
2023/01/29 13:12:02;;;;;;;;;;;1.50;99.90;;;;;;5093248;28;19919;-68
2023/01/29 13:14:38;;;;;;;;;;;1.50;99.90;;;;;;5094545;28;20283;-68
2023/01/29 13:17:17;;;;;;;;;;;1.50;99.90;;;;;;5094485;28;19927;-69
2023/01/29 13:19:44;;;;;;;;;;;1.60;99.90;;;;;;5094092;28;20279;-69
2023/01/29 13:22:22;;;;;;;;;;;1.60;99.90;;;;;;5093922;28;19912;-69
2023/01/29 13:24:47;;;;;;;;;;;1.70;99.90;;;;;;5094539;28;19916;-68
2023/01/29 13:27:30;;;;;;;;;;;1.60;99.90;;;;;;5093144;28;19912;-68
2023/01/29 13:29:56;;;;;;;;;;;1.50;99.90;;;;;;5098823;28;20256;-68
2023/01/29 13:32:26;;;;;;;;;;;1.50;99.90;;;;;;5098765;28;19951;-68
2023/01/29 13:34:56;;;;;;;;;;;1.60;99.90;;;;;;5098545;28;19927;-68
2023/01/29 13:37:31;;;;;;;;;;;1.50;99.90;;;;;;5098807;28;20371;-67
2023/01/29 13:39:58;;;;;;;;;;;1.50;99.90;;;;;;5097776;28;19965;-68
2023/01/29 13:42:38;;;;;;;;;;;1.50;99.90;;;;;;5096376;28;20275;-68
2023/01/29 13:45:06;;;;;;;;;;;1.60;99.90;;;;;;5096761;28;19918;-68
2023/01/29 13:47:33;;;;;;;;;;;1.50;99.90;;;;;;5098210;28;20002;-68
2023/01/29 13:50:00;;;;;;;;;;;1.50;99.90;;;;;;5098401;28;19912;-68
2023/01/29 13:52:39;;;;;;;;;;;1.40;99.90;;;;;;5098225;28;19938;-68
2023/01/29 13:55:08;;;;;;;;;;;1.40;99.90;;;;;;5098198;28;19942;-68
2023/01/29 13:57:34;;;;;;;;;;;1.40;99.90;;;;;;5098183;28;19952;-68
2023/01/29 13:59:59;;;;;;;;;;;1.50;99.90;;;;;;5098171;28;19951;-68
2023/01/29 14:02:28;;;;;;;;;;;1.50;99.90;;;;;;5098197;28;19965;-67
2023/01/29 14:05:12;;;;;;;;;;;1.60;99.90;;;;;;5097392;28;19912;-69
2023/01/29 14:07:48;;;;;;;;;;;1.40;99.90;;;;;;5096103;28;19972;-68
2023/01/29 14:10:13;;;;;;;;;;;1.50;99.90;;;;;;5097501;28;19957;-68
2023/01/29 14:12:40;;;;;;;;;;;1.40;99.90;;;;;;5098049;28;19916;-69
2023/01/29 14:15:17;;;;;;;;;;;1.40;99.90;;;;;;5096508;28;19920;-69
2023/01/29 14:17:55;;;;;;;;;;;1.50;99.90;;;;;;5097775;28;19943;-67
2023/01/29 14:20:23;;;;;;;;;;;1.30;99.90;;;;;;5097893;28;20382;-67
2023/01/29 14:22:56;;;;;;;;;;;1.30;99.90;;;;;;5097605;28;19916;-67
2023/01/29 14:25:27;;;;;;;;;;;1.20;99.90;;;;;;5079600;28;20423;-67
2023/01/29 14:27:52;;;;;;;;;;;1.20;99.90;;;;;;5086223;28;19919;-69
2023/01/29 14:30:19;;;;;;;;;;;1.30;99.90;;;;;;5077348;28;19912;-67
2023/01/29 14:32:48;;;;;;;;;;;1.30;99.90;;;;;;5059235;28;19913;-68
2023/01/29 14:35:19;;;;;;;;;;;1.30;99.90;;;;;;5076986;28;20028;-67
2023/01/29 14:37:47;;;;;;;;;;;1.20;99.90;;;;;;5087107;28;19919;-67
2023/01/29 14:40:18;;;;;;;;;;;1.20;99.90;;;;;;5096377;28;19918;-68
2023/01/29 14:42:51;;;;;;;;;;;1.20;99.90;;;;;;5079001;28;19946;-67
2023/01/29 14:45:32;;;;;;;;;;;1.20;99.90;;;;;;5097376;28;20271;-68
2023/01/29 14:47:59;;;;;;;;;;;1.20;99.90;;;;;;5085333;28;19919;-67
2023/01/29 14:50:28;;;;;;;;;;;1.30;99.90;;;;;;5076976;28;19912;-67
2023/01/29 14:52:57;;;;;;;;;;;1.30;99.90;;;;;;5076884;28;19913;-67
2023/01/29 14:55:25;;;;;;;;;;;1.30;99.90;;;;;;5076650;28;19963;-68
2023/01/29 14:57:51;;;;;;;;;;;1.30;99.90;;;;;;5087211;28;19946;-67
2023/01/29 15:00:21;;;;;;;;;;;1.30;99.90;;;;;;5078811;28;20294;-67
2023/01/29 15:02:49;;;;;;;;;;;1.40;99.90;;;;;;5097142;28;19944;-67
2023/01/29 15:05:23;;;;;;;;;;;1.30;99.90;;;;;;5078865;28;20341;-68
2023/01/29 15:07:55;;;;;;;;;;;1.20;99.90;;;;;;5086681;28;20002;-67
2023/01/29 15:10:26;;;;;;;;;;;1.20;99.90;;;;;;5079068;28;20440;-67
2023/01/29 15:12:54;;;;;;;;;;;1.30;99.90;;;;;;5076609;28;20053;-67